sensor_id;sensor_type;location;lat;lon;timestamp;P1;durP1;ratioP1;P2;durP2;ratioP2
5785;SDS011;2919;48.630;9.000;2023-02-22T00:00:15;4.70;;;2.20;;
5785;SDS011;2919;48.630;9.000;2023-02-22T00:02:55;4.70;;;2.30;;
5785;SDS011;2919;48.630;9.000;2023-02-22T00:05:25;2.90;;;2.07;;
5785;SDS011;2919;48.630;9.000;2023-02-22T00:07:52;7.20;;;2.80;;
5785;SDS011;2919;48.630;9.000;2023-02-22T00:10:20;4.67;;;2.77;;
5785;SDS011;2919;48.630;9.000;2023-02-22T00:12:48;3.50;;;1.90;;
5785;SDS011;2919;48.630;9.000;2023-02-22T00:15:16;4.00;;;1.87;;
5785;SDS011;2919;48.630;9.000;2023-02-22T00:17:44;2.87;;;2.00;;
5785;SDS011;2919;48.630;9.000;2023-02-22T00:20:11;6.00;;;2.77;;
5785;SDS011;2919;48.630;9.000;2023-02-22T00:22:44;5.57;;;2.57;;
5785;SDS011;2919;48.630;9.000;2023-02-22T00:25:15;3.57;;;2.10;;
5785;SDS011;2919;48.630;9.000;2023-02-22T00:27:42;5.03;;;2.37;;
5785;SDS011;2919;48.630;9.000;2023-02-22T00:30:08;4.63;;;2.43;;
5785;SDS011;2919;48.630;9.000;2023-02-22T00:32:42;11.70;;;3.50;;
5785;SDS011;2919;48.630;9.000;2023-02-22T00:35:15;6.07;;;3.53;;
5785;SDS011;2919;48.630;9.000;2023-02-22T00:37:42;6.33;;;2.53;;
5785;SDS011;2919;48.630;9.000;2023-02-22T00:40:14;4.10;;;2.00;;
5785;SDS011;2919;48.630;9.000;2023-02-22T00:42:42;5.67;;;2.00;;
5785;SDS011;2919;48.630;9.000;2023-02-22T00:45:10;5.37;;;3.10;;
5785;SDS011;2919;48.630;9.000;2023-02-22T00:47:36;6.47;;;2.53;;
5785;SDS011;2919;48.630;9.000;2023-02-22T00:50:02;4.83;;;2.37;;
5785;SDS011;2919;48.630;9.000;2023-02-22T00:52:28;7.37;;;2.67;;
5785;SDS011;2919;48.630;9.000;2023-02-22T00:54:54;7.10;;;3.00;;
5785;SDS011;2919;48.630;9.000;2023-02-22T00:57:21;8.60;;;2.37;;
5785;SDS011;2919;48.630;9.000;2023-02-22T00:59:47;4.30;;;1.97;;
5785;SDS011;2919;48.630;9.000;2023-02-22T01:02:13;3.93;;;2.63;;
5785;SDS011;2919;48.630;9.000;2023-02-22T01:04:38;6.60;;;2.53;;
5785;SDS011;2919;48.630;9.000;2023-02-22T01:07:04;8.60;;;3.00;;
5785;SDS011;2919;48.630;9.000;2023-02-22T01:09:30;5.70;;;2.10;;
5785;SDS011;2919;48.630;9.000;2023-02-22T01:11:55;5.10;;;1.97;;
5785;SDS011;2919;48.630;9.000;2023-02-22T01:14:22;4.70;;;2.03;;
5785;SDS011;2919;48.630;9.000;2023-02-22T01:16:50;7.43;;;2.57;;
5785;SDS011;2919;48.630;9.000;2023-02-22T01:19:18;5.17;;;2.27;;
5785;SDS011;2919;48.630;9.000;2023-02-22T01:21:44;4.47;;;2.20;;
5785;SDS011;2919;48.630;9.000;2023-02-22T01:24:11;3.47;;;1.50;;
5785;SDS011;2919;48.630;9.000;2023-02-22T01:26:40;11.50;;;2.70;;
5785;SDS011;2919;48.630;9.000;2023-02-22T01:29:14;4.17;;;1.97;;
5785;SDS011;2919;48.630;9.000;2023-02-22T01:31:41;4.20;;;2.20;;
5785;SDS011;2919;48.630;9.000;2023-02-22T01:34:09;3.30;;;1.63;;
5785;SDS011;2919;48.630;9.000;2023-02-22T01:36:36;4.53;;;2.20;;
5785;SDS011;2919;48.630;9.000;2023-02-22T01:39:03;6.03;;;1.63;;
5785;SDS011;2919;48.630;9.000;2023-02-22T01:41:29;7.17;;;2.50;;
5785;SDS011;2919;48.630;9.000;2023-02-22T01:43:55;3.40;;;2.30;;
5785;SDS011;2919;48.630;9.000;2023-02-22T01:46:25;4.60;;;2.20;;
5785;SDS011;2919;48.630;9.000;2023-02-22T01:49:01;4.73;;;2.10;;
5785;SDS011;2919;48.630;9.000;2023-02-22T01:51:35;12.10;;;2.37;;
5785;SDS011;2919;48.630;9.000;2023-02-22T01:56:58;3.53;;;1.93;;
5785;SDS011;2919;48.630;9.000;2023-02-22T01:59:30;5.50;;;2.20;;
5785;SDS011;2919;48.630;9.000;2023-02-22T02:02:01;3.40;;;2.23;;
5785;SDS011;2919;48.630;9.000;2023-02-22T02:04:28;2.50;;;1.50;;
5785;SDS011;2919;48.630;9.000;2023-02-22T02:06:57;10.40;;;3.20;;
5785;SDS011;2919;48.630;9.000;2023-02-22T02:12:21;2.13;;;1.53;;
5785;SDS011;2919;48.630;9.000;2023-02-22T02:14:48;6.30;;;2.10;;
5785;SDS011;2919;48.630;9.000;2023-02-22T02:17:14;4.80;;;1.87;;
5785;SDS011;2919;48.630;9.000;2023-02-22T02:19:45;4.83;;;2.37;;
5785;SDS011;2919;48.630;9.000;2023-02-22T02:25:46;5.93;;;2.50;;
5785;SDS011;2919;48.630;9.000;2023-02-22T02:27:59;6.30;;;2.60;;
5785;SDS011;2919;48.630;9.000;2023-02-22T02:33:34;4.87;;;2.10;;
5785;SDS011;2919;48.630;9.000;2023-02-22T02:36:15;14.80;;;2.43;;
5785;SDS011;2919;48.630;9.000;2023-02-22T02:38:56;3.40;;;1.37;;
5785;SDS011;2919;48.630;9.000;2023-02-22T02:41:31;3.77;;;1.97;;
5785;SDS011;2919;48.630;9.000;2023-02-22T02:44:02;3.27;;;1.70;;
5785;SDS011;2919;48.630;9.000;2023-02-22T02:46:34;4.40;;;2.10;;
5785;SDS011;2919;48.630;9.000;2023-02-22T02:49:11;6.83;;;2.00;;
5785;SDS011;2919;48.630;9.000;2023-02-22T02:51:41;4.40;;;2.70;;
5785;SDS011;2919;48.630;9.000;2023-02-22T02:54:11;5.70;;;2.33;;
5785;SDS011;2919;48.630;9.000;2023-02-22T02:56:38;9.73;;;3.20;;
5785;SDS011;2919;48.630;9.000;2023-02-22T02:59:26;3.67;;;2.40;;
5785;SDS011;2919;48.630;9.000;2023-02-22T03:01:57;6.33;;;2.30;;
5785;SDS011;2919;48.630;9.000;2023-02-22T03:15:43;4.17;;;1.80;;
5785;SDS011;2919;48.630;9.000;2023-02-22T03:19:29;5.37;;;2.10;;
5785;SDS011;2919;48.630;9.000;2023-02-22T03:21:39;4.80;;;2.30;;
5785;SDS011;2919;48.630;9.000;2023-02-22T03:24:21;14.50;;;2.30;;
5785;SDS011;2919;48.630;9.000;2023-02-22T03:26:55;5.00;;;2.93;;
5785;SDS011;2919;48.630;9.000;2023-02-22T03:29:33;6.50;;;3.10;;
5785;SDS011;2919;48.630;9.000;2023-02-22T03:32:04;5.23;;;2.70;;
5785;SDS011;2919;48.630;9.000;2023-02-22T03:34:35;10.50;;;2.83;;
5785;SDS011;2919;48.630;9.000;2023-02-22T03:37:28;4.77;;;2.93;;
5785;SDS011;2919;48.630;9.000;2023-02-22T03:39:58;8.50;;;2.57;;
5785;SDS011;2919;48.630;9.000;2023-02-22T03:42:28;5.50;;;2.27;;
5785;SDS011;2919;48.630;9.000;2023-02-22T03:44:57;8.60;;;3.30;;
5785;SDS011;2919;48.630;9.000;2023-02-22T03:47:29;6.00;;;2.63;;
5785;SDS011;2919;48.630;9.000;2023-02-22T03:50:06;3.30;;;2.30;;
5785;SDS011;2919;48.630;9.000;2023-02-22T03:52:39;12.93;;;3.40;;
5785;SDS011;2919;48.630;9.000;2023-02-22T03:55:07;5.07;;;2.77;;
5785;SDS011;2919;48.630;9.000;2023-02-22T03:57:35;9.13;;;2.87;;
5785;SDS011;2919;48.630;9.000;2023-02-22T04:00:05;6.80;;;3.37;;
5785;SDS011;2919;48.630;9.000;2023-02-22T04:02:33;5.90;;;3.60;;
5785;SDS011;2919;48.630;9.000;2023-02-22T04:04:59;4.50;;;2.80;;
5785;SDS011;2919;48.630;9.000;2023-02-22T04:07:25;9.87;;;4.20;;
5785;SDS011;2919;48.630;9.000;2023-02-22T04:09:50;16.57;;;2.80;;
5785;SDS011;2919;48.630;9.000;2023-02-22T04:12:16;6.10;;;2.97;;
5785;SDS011;2919;48.630;9.000;2023-02-22T04:14:41;5.90;;;2.83;;
5785;SDS011;2919;48.630;9.000;2023-02-22T04:17:07;5.90;;;3.03;;
5785;SDS011;2919;48.630;9.000;2023-02-22T04:19:33;5.70;;;3.00;;
5785;SDS011;2919;48.630;9.000;2023-02-22T04:21:59;6.90;;;3.53;;
5785;SDS011;2919;48.630;9.000;2023-02-22T04:24:24;6.20;;;3.43;;
5785;SDS011;2919;48.630;9.000;2023-02-22T04:26:50;5.30;;;2.93;;
5785;SDS011;2919;48.630;9.000;2023-02-22T04:29:16;10.70;;;4.40;;
5785;SDS011;2919;48.630;9.000;2023-02-22T04:31:42;6.57;;;3.17;;
5785;SDS011;2919;48.630;9.000;2023-02-22T04:34:08;7.33;;;3.17;;
5785;SDS011;2919;48.630;9.000;2023-02-22T04:36:33;9.50;;;2.93;;
5785;SDS011;2919;48.630;9.000;2023-02-22T04:38:59;9.17;;;3.27;;
5785;SDS011;2919;48.630;9.000;2023-02-22T04:41:25;8.40;;;4.57;;
5785;SDS011;2919;48.630;9.000;2023-02-22T04:43:51;5.70;;;3.30;;
5785;SDS011;2919;48.630;9.000;2023-02-22T04:46:16;6.60;;;3.87;;
5785;SDS011;2919;48.630;9.000;2023-02-22T04:48:42;8.73;;;3.57;;
5785;SDS011;2919;48.630;9.000;2023-02-22T04:51:08;8.80;;;2.70;;
5785;SDS011;2919;48.630;9.000;2023-02-22T04:53:34;4.47;;;2.60;;
5785;SDS011;2919;48.630;9.000;2023-02-22T04:55:59;6.60;;;2.60;;
5785;SDS011;2919;48.630;9.000;2023-02-22T04:58:25;6.97;;;3.80;;
5785;SDS011;2919;48.630;9.000;2023-02-22T05:00:51;5.30;;;2.63;;
5785;SDS011;2919;48.630;9.000;2023-02-22T05:03:17;9.17;;;3.87;;
5785;SDS011;2919;48.630;9.000;2023-02-22T05:05:42;6.10;;;3.27;;
5785;SDS011;2919;48.630;9.000;2023-02-22T05:08:08;7.40;;;3.67;;
5785;SDS011;2919;48.630;9.000;2023-02-22T05:10:34;5.07;;;3.67;;
5785;SDS011;2919;48.630;9.000;2023-02-22T05:12:59;7.10;;;3.40;;
5785;SDS011;2919;48.630;9.000;2023-02-22T05:15:25;6.20;;;3.00;;
5785;SDS011;2919;48.630;9.000;2023-02-22T05:17:51;6.57;;;3.87;;
5785;SDS011;2919;48.630;9.000;2023-02-22T05:20:22;6.10;;;3.43;;
5785;SDS011;2919;48.630;9.000;2023-02-22T05:22:52;6.70;;;2.83;;
5785;SDS011;2919;48.630;9.000;2023-02-22T05:25:21;6.10;;;3.40;;
5785;SDS011;2919;48.630;9.000;2023-02-22T05:27:59;6.83;;;3.30;;
5785;SDS011;2919;48.630;9.000;2023-02-22T05:30:33;6.23;;;3.53;;
5785;SDS011;2919;48.630;9.000;2023-02-22T05:33:00;7.90;;;3.40;;
5785;SDS011;2919;48.630;9.000;2023-02-22T05:35:27;5.17;;;2.70;;
5785;SDS011;2919;48.630;9.000;2023-02-22T05:37:53;5.93;;;2.97;;
5785;SDS011;2919;48.630;9.000;2023-02-22T05:40:20;4.60;;;2.80;;
5785;SDS011;2919;48.630;9.000;2023-02-22T05:42:48;7.47;;;3.63;;
5785;SDS011;2919;48.630;9.000;2023-02-22T05:45:15;4.77;;;2.90;;
5785;SDS011;2919;48.630;9.000;2023-02-22T05:47:43;11.40;;;3.10;;
5785;SDS011;2919;48.630;9.000;2023-02-22T05:50:09;7.77;;;3.20;;
5785;SDS011;2919;48.630;9.000;2023-02-22T05:52:35;8.23;;;3.70;;
5785;SDS011;2919;48.630;9.000;2023-02-22T05:55:02;13.20;;;3.53;;
5785;SDS011;2919;48.630;9.000;2023-02-22T05:57:29;7.73;;;3.60;;
5785;SDS011;2919;48.630;9.000;2023-02-22T05:59:54;5.67;;;2.83;;
5785;SDS011;2919;48.630;9.000;2023-02-22T06:02:20;9.97;;;3.80;;
5785;SDS011;2919;48.630;9.000;2023-02-22T06:04:46;6.70;;;4.10;;
5785;SDS011;2919;48.630;9.000;2023-02-22T06:07:12;11.40;;;3.60;;
5785;SDS011;2919;48.630;9.000;2023-02-22T06:09:38;8.50;;;4.47;;
5785;SDS011;2919;48.630;9.000;2023-02-22T06:12:05;11.23;;;5.40;;
5785;SDS011;2919;48.630;9.000;2023-02-22T06:14:31;14.23;;;5.20;;
5785;SDS011;2919;48.630;9.000;2023-02-22T06:16:57;11.40;;;5.17;;
5785;SDS011;2919;48.630;9.000;2023-02-22T06:19:23;10.50;;;4.53;;
5785;SDS011;2919;48.630;9.000;2023-02-22T06:21:52;12.83;;;5.57;;
5785;SDS011;2919;48.630;9.000;2023-02-22T06:24:19;8.33;;;4.67;;
5785;SDS011;2919;48.630;9.000;2023-02-22T06:26:46;8.00;;;4.07;;
5785;SDS011;2919;48.630;9.000;2023-02-22T06:29:22;9.80;;;3.97;;
5785;SDS011;2919;48.630;9.000;2023-02-22T06:31:54;5.03;;;3.20;;
5785;SDS011;2919;48.630;9.000;2023-02-22T06:34:20;8.47;;;3.60;;
5785;SDS011;2919;48.630;9.000;2023-02-22T06:36:46;7.27;;;3.80;;
5785;SDS011;2919;48.630;9.000;2023-02-22T06:39:16;7.47;;;3.20;;
5785;SDS011;2919;48.630;9.000;2023-02-22T06:41:43;16.63;;;3.83;;
5785;SDS011;2919;48.630;9.000;2023-02-22T06:44:10;7.30;;;4.30;;
5785;SDS011;2919;48.630;9.000;2023-02-22T06:46:37;6.80;;;3.83;;
5785;SDS011;2919;48.630;9.000;2023-02-22T06:49:03;7.60;;;4.67;;
5785;SDS011;2919;48.630;9.000;2023-02-22T06:51:29;7.17;;;3.00;;
5785;SDS011;2919;48.630;9.000;2023-02-22T06:53:59;10.40;;;3.60;;
5785;SDS011;2919;48.630;9.000;2023-02-22T06:56:25;7.60;;;4.27;;
5785;SDS011;2919;48.630;9.000;2023-02-22T06:58:50;15.83;;;3.60;;
5785;SDS011;2919;48.630;9.000;2023-02-22T07:01:16;9.47;;;3.77;;
5785;SDS011;2919;48.630;9.000;2023-02-22T07:03:42;8.10;;;4.60;;
5785;SDS011;2919;48.630;9.000;2023-02-22T07:06:07;8.60;;;3.63;;
5785;SDS011;2919;48.630;9.000;2023-02-22T07:08:34;11.30;;;5.10;;
5785;SDS011;2919;48.630;9.000;2023-02-22T07:11:00;9.50;;;4.93;;
5785;SDS011;2919;48.630;9.000;2023-02-22T07:13:26;14.00;;;4.70;;
5785;SDS011;2919;48.630;9.000;2023-02-22T07:15:51;7.07;;;4.40;;
5785;SDS011;2919;48.630;9.000;2023-02-22T07:18:17;6.50;;;3.90;;
5785;SDS011;2919;48.630;9.000;2023-02-22T07:20:43;7.83;;;3.73;;
5785;SDS011;2919;48.630;9.000;2023-02-22T07:23:08;11.37;;;3.93;;
5785;SDS011;2919;48.630;9.000;2023-02-22T07:25:37;10.43;;;4.60;;
5785;SDS011;2919;48.630;9.000;2023-02-22T07:28:03;8.53;;;4.17;;
5785;SDS011;2919;48.630;9.000;2023-02-22T07:30:30;14.43;;;5.57;;
5785;SDS011;2919;48.630;9.000;2023-02-22T07:32:59;5.67;;;3.90;;
5785;SDS011;2919;48.630;9.000;2023-02-22T07:35:30;6.03;;;3.77;;
5785;SDS011;2919;48.630;9.000;2023-02-22T07:37:58;9.23;;;3.53;;
5785;SDS011;2919;48.630;9.000;2023-02-22T07:40:24;11.07;;;4.07;;
5785;SDS011;2919;48.630;9.000;2023-02-22T07:45:26;13.60;;;3.77;;
5785;SDS011;2919;48.630;9.000;2023-02-22T07:47:54;6.90;;;3.63;;
5785;SDS011;2919;48.630;9.000;2023-02-22T07:50:21;11.97;;;5.37;;
5785;SDS011;2919;48.630;9.000;2023-02-22T07:52:48;7.73;;;3.67;;
5785;SDS011;2919;48.630;9.000;2023-02-22T07:55:16;6.00;;;3.50;;
5785;SDS011;2919;48.630;9.000;2023-02-22T07:57:44;15.93;;;3.90;;
5785;SDS011;2919;48.630;9.000;2023-02-22T08:00:11;9.00;;;3.47;;
5785;SDS011;2919;48.630;9.000;2023-02-22T08:02:40;7.87;;;3.10;;
5785;SDS011;2919;48.630;9.000;2023-02-22T08:05:06;7.80;;;3.77;;
5785;SDS011;2919;48.630;9.000;2023-02-22T08:07:34;5.87;;;2.60;;
5785;SDS011;2919;48.630;9.000;2023-02-22T08:10:04;4.80;;;2.60;;
5785;SDS011;2919;48.630;9.000;2023-02-22T08:12:34;7.07;;;3.33;;
5785;SDS011;2919;48.630;9.000;2023-02-22T08:15:01;9.50;;;3.47;;
5785;SDS011;2919;48.630;9.000;2023-02-22T08:17:28;5.53;;;2.93;;
5785;SDS011;2919;48.630;9.000;2023-02-22T08:19:53;3.57;;;2.80;;
5785;SDS011;2919;48.630;9.000;2023-02-22T08:22:19;8.00;;;3.70;;
5785;SDS011;2919;48.630;9.000;2023-02-22T08:24:45;4.07;;;2.70;;
5785;SDS011;2919;48.630;9.000;2023-02-22T08:27:10;12.00;;;3.10;;
5785;SDS011;2919;48.630;9.000;2023-02-22T08:29:36;8.23;;;3.33;;
5785;SDS011;2919;48.630;9.000;2023-02-22T08:32:02;10.90;;;2.50;;
5785;SDS011;2919;48.630;9.000;2023-02-22T08:34:28;7.40;;;2.30;;
5785;SDS011;2919;48.630;9.000;2023-02-22T08:36:54;5.37;;;3.17;;
5785;SDS011;2919;48.630;9.000;2023-02-22T08:39:20;11.97;;;3.40;;
5785;SDS011;2919;48.630;9.000;2023-02-22T08:41:45;5.10;;;2.33;;
5785;SDS011;2919;48.630;9.000;2023-02-22T08:44:11;7.83;;;2.90;;
5785;SDS011;2919;48.630;9.000;2023-02-22T08:46:37;3.70;;;2.13;;
5785;SDS011;2919;48.630;9.000;2023-02-22T08:49:03;4.90;;;2.27;;
5785;SDS011;2919;48.630;9.000;2023-02-22T08:51:29;6.40;;;3.27;;
5785;SDS011;2919;48.630;9.000;2023-02-22T08:54:02;6.40;;;2.53;;
5785;SDS011;2919;48.630;9.000;2023-02-22T08:56:28;14.40;;;3.30;;
5785;SDS011;2919;48.630;9.000;2023-02-22T08:58:54;4.50;;;2.70;;
5785;SDS011;2919;48.630;9.000;2023-02-22T09:01:21;5.63;;;2.70;;
5785;SDS011;2919;48.630;9.000;2023-02-22T09:03:48;5.67;;;2.00;;
5785;SDS011;2919;48.630;9.000;2023-02-22T09:06:14;3.10;;;2.13;;
5785;SDS011;2919;48.630;9.000;2023-02-22T09:08:40;3.90;;;1.80;;
5785;SDS011;2919;48.630;9.000;2023-02-22T09:11:05;10.23;;;3.30;;
5785;SDS011;2919;48.630;9.000;2023-02-22T09:13:31;4.80;;;2.57;;
5785;SDS011;2919;48.630;9.000;2023-02-22T09:15:56;5.60;;;2.90;;
5785;SDS011;2919;48.630;9.000;2023-02-22T09:18:22;9.03;;;2.70;;
5785;SDS011;2919;48.630;9.000;2023-02-22T09:20:48;8.10;;;3.23;;
5785;SDS011;2919;48.630;9.000;2023-02-22T09:23:13;6.90;;;2.73;;
5785;SDS011;2919;48.630;9.000;2023-02-22T09:25:39;5.70;;;2.67;;
5785;SDS011;2919;48.630;9.000;2023-02-22T09:28:05;5.80;;;2.80;;
5785;SDS011;2919;48.630;9.000;2023-02-22T09:30:32;6.13;;;2.20;;
5785;SDS011;2919;48.630;9.000;2023-02-22T09:33:13;6.07;;;2.57;;
5785;SDS011;2919;48.630;9.000;2023-02-22T09:35:40;5.50;;;2.80;;
5785;SDS011;2919;48.630;9.000;2023-02-22T09:38:09;6.43;;;2.90;;
5785;SDS011;2919;48.630;9.000;2023-02-22T09:40:36;7.60;;;3.20;;
5785;SDS011;2919;48.630;9.000;2023-02-22T09:48:26;5.57;;;3.17;;
5785;SDS011;2919;48.630;9.000;2023-02-22T09:50:56;5.10;;;2.77;;
5785;SDS011;2919;48.630;9.000;2023-02-22T09:56:06;16.53;;;2.33;;
5785;SDS011;2919;48.630;9.000;2023-02-22T09:58:38;5.33;;;2.30;;
5785;SDS011;2919;48.630;9.000;2023-02-22T10:06:50;6.07;;;2.87;;
5785;SDS011;2919;48.630;9.000;2023-02-22T10:09:36;4.73;;;2.20;;
5785;SDS011;2919;48.630;9.000;2023-02-22T10:12:27;7.40;;;2.43;;
5785;SDS011;2919;48.630;9.000;2023-02-22T10:17:59;5.67;;;2.47;;
5785;SDS011;2919;48.630;9.000;2023-02-22T10:20:41;7.43;;;2.40;;
5785;SDS011;2919;48.630;9.000;2023-02-22T10:26:26;3.33;;;1.63;;
5785;SDS011;2919;48.630;9.000;2023-02-22T10:29:05;4.43;;;1.73;;
5785;SDS011;2919;48.630;9.000;2023-02-22T10:31:37;3.83;;;1.67;;
5785;SDS011;2919;48.630;9.000;2023-02-22T10:34:17;3.97;;;2.17;;
5785;SDS011;2919;48.630;9.000;2023-02-22T10:36:48;2.57;;;1.13;;
5785;SDS011;2919;48.630;9.000;2023-02-22T10:39:24;4.50;;;2.13;;
5785;SDS011;2919;48.630;9.000;2023-02-22T10:41:54;2.83;;;1.50;;
5785;SDS011;2919;48.630;9.000;2023-02-22T10:44:22;5.80;;;2.60;;
5785;SDS011;2919;48.630;9.000;2023-02-22T10:46:48;8.00;;;2.40;;
5785;SDS011;2919;48.630;9.000;2023-02-22T10:49:18;4.90;;;1.90;;
5785;SDS011;2919;48.630;9.000;2023-02-22T10:51:56;4.90;;;1.93;;
5785;SDS011;2919;48.630;9.000;2023-02-22T10:54:27;8.40;;;2.30;;
5785;SDS011;2919;48.630;9.000;2023-02-22T10:56:55;3.93;;;1.50;;
5785;SDS011;2919;48.630;9.000;2023-02-22T10:59:30;7.87;;;2.53;;
5785;SDS011;2919;48.630;9.000;2023-02-22T11:01:57;3.40;;;1.80;;
5785;SDS011;2919;48.630;9.000;2023-02-22T11:04:23;5.60;;;2.33;;
5785;SDS011;2919;48.630;9.000;2023-02-22T11:09:47;8.30;;;1.97;;
5785;SDS011;2919;48.630;9.000;2023-02-22T11:17:49;5.07;;;2.03;;
5785;SDS011;2919;48.630;9.000;2023-02-22T11:20:19;14.87;;;2.40;;
5785;SDS011;2919;48.630;9.000;2023-02-22T11:22:51;3.13;;;1.73;;
5785;SDS011;2919;48.630;9.000;2023-02-22T11:25:37;6.60;;;2.43;;
5785;SDS011;2919;48.630;9.000;2023-02-22T11:28:07;3.10;;;1.80;;
5785;SDS011;2919;48.630;9.000;2023-02-22T11:30:34;2.77;;;1.77;;
5785;SDS011;2919;48.630;9.000;2023-02-22T11:33:09;4.40;;;2.30;;
5785;SDS011;2919;48.630;9.000;2023-02-22T11:35:54;5.83;;;1.73;;
5785;SDS011;2919;48.630;9.000;2023-02-22T11:43:38;4.40;;;1.70;;
5785;SDS011;2919;48.630;9.000;2023-02-22T11:46:23;5.17;;;2.60;;
5785;SDS011;2919;48.630;9.000;2023-02-22T11:51:32;4.80;;;1.50;;
5785;SDS011;2919;48.630;9.000;2023-02-22T12:10:46;6.30;;;1.90;;
5785;SDS011;2919;48.630;9.000;2023-02-22T12:16:26;4.23;;;1.93;;
5785;SDS011;2919;48.630;9.000;2023-02-22T12:22:02;3.17;;;1.30;;
5785;SDS011;2919;48.630;9.000;2023-02-22T12:24:38;5.83;;;1.90;;
5785;SDS011;2919;48.630;9.000;2023-02-22T12:27:14;4.20;;;1.60;;
5785;SDS011;2919;48.630;9.000;2023-02-22T12:30:00;2.87;;;1.33;;
5785;SDS011;2919;48.630;9.000;2023-02-22T12:32:38;4.03;;;1.63;;
5785;SDS011;2919;48.630;9.000;2023-02-22T12:35:15;9.33;;;2.00;;
5785;SDS011;2919;48.630;9.000;2023-02-22T12:37:55;8.40;;;2.47;;
5785;SDS011;2919;48.630;9.000;2023-02-22T12:43:28;10.37;;;3.03;;
5785;SDS011;2919;48.630;9.000;2023-02-22T12:53:36;9.83;;;3.13;;
5785;SDS011;2919;48.630;9.000;2023-02-22T12:58:45;6.13;;;2.47;;
5785;SDS011;2919;48.630;9.000;2023-02-22T13:01:21;10.40;;;2.60;;
5785;SDS011;2919;48.630;9.000;2023-02-22T13:03:51;7.10;;;2.13;;
5785;SDS011;2919;48.630;9.000;2023-02-22T13:17:13;14.50;;;3.57;;
5785;SDS011;2919;48.630;9.000;2023-02-22T13:22:21;7.13;;;2.77;;
5785;SDS011;2919;48.630;9.000;2023-02-22T13:30:39;8.27;;;3.10;;
5785;SDS011;2919;48.630;9.000;2023-02-22T13:52:35;9.40;;;3.03;;
5785;SDS011;2919;48.630;9.000;2023-02-22T13:55:09;7.70;;;3.20;;
5785;SDS011;2919;48.630;9.000;2023-02-22T13:57:42;17.33;;;4.47;;
5785;SDS011;2919;48.630;9.000;2023-02-22T14:05:52;8.77;;;2.40;;
5785;SDS011;2919;48.630;9.000;2023-02-22T14:13:12;9.63;;;4.40;;
5785;SDS011;2919;48.630;9.000;2023-02-22T14:18:24;10.73;;;4.03;;
5785;SDS011;2919;48.630;9.000;2023-02-22T14:21:13;9.40;;;3.50;;
5785;SDS011;2919;48.630;9.000;2023-02-22T14:23:45;11.03;;;3.30;;
5785;SDS011;2919;48.630;9.000;2023-02-22T14:26:27;13.83;;;5.10;;
5785;SDS011;2919;48.630;9.000;2023-02-22T14:42:05;13.40;;;4.37;;
5785;SDS011;2919;48.630;9.000;2023-02-22T14:44:33;7.23;;;4.27;;
5785;SDS011;2919;48.630;9.000;2023-02-22T14:47:05;10.40;;;3.60;;
5785;SDS011;2919;48.630;9.000;2023-02-22T14:49:35;7.63;;;4.33;;
5785;SDS011;2919;48.630;9.000;2023-02-22T14:52:12;21.53;;;4.13;;
5785;SDS011;2919;48.630;9.000;2023-02-22T14:55:28;16.53;;;4.83;;
5785;SDS011;2919;48.630;9.000;2023-02-22T15:00:14;10.63;;;4.60;;
5785;SDS011;2919;48.630;9.000;2023-02-22T15:02:47;9.40;;;4.17;;
5785;SDS011;2919;48.630;9.000;2023-02-22T15:05:15;12.70;;;4.93;;
5785;SDS011;2919;48.630;9.000;2023-02-22T15:08:16;9.40;;;4.30;;
5785;SDS011;2919;48.630;9.000;2023-02-22T15:10:39;12.93;;;5.10;;
5785;SDS011;2919;48.630;9.000;2023-02-22T15:13:14;10.20;;;4.17;;
5785;SDS011;2919;48.630;9.000;2023-02-22T15:15:48;7.23;;;3.53;;
5785;SDS011;2919;48.630;9.000;2023-02-22T15:21:05;7.90;;;3.80;;
5785;SDS011;2919;48.630;9.000;2023-02-22T15:23:40;8.10;;;4.07;;
5785;SDS011;2919;48.630;9.000;2023-02-22T15:26:20;10.50;;;5.00;;
5785;SDS011;2919;48.630;9.000;2023-02-22T15:28:47;7.43;;;3.77;;
5785;SDS011;2919;48.630;9.000;2023-02-22T15:31:25;11.53;;;4.13;;
5785;SDS011;2919;48.630;9.000;2023-02-22T15:33:56;10.60;;;4.10;;
5785;SDS011;2919;48.630;9.000;2023-02-22T15:36:26;9.20;;;4.10;;
5785;SDS011;2919;48.630;9.000;2023-02-22T15:38:55;11.20;;;4.43;;
5785;SDS011;2919;48.630;9.000;2023-02-22T15:41:23;11.20;;;4.20;;
5785;SDS011;2919;48.630;9.000;2023-02-22T15:44:06;10.80;;;3.60;;
5785;SDS011;2919;48.630;9.000;2023-02-22T15:46:35;11.47;;;4.43;;
5785;SDS011;2919;48.630;9.000;2023-02-22T15:49:04;10.13;;;3.80;;
5785;SDS011;2919;48.630;9.000;2023-02-22T15:51:29;8.20;;;4.77;;
5785;SDS011;2919;48.630;9.000;2023-02-22T15:53:57;35.33;;;4.90;;
5785;SDS011;2919;48.630;9.000;2023-02-22T15:56:30;7.93;;;3.63;;
5785;SDS011;2919;48.630;9.000;2023-02-22T15:59:10;14.47;;;3.50;;
5785;SDS011;2919;48.630;9.000;2023-02-22T16:01:38;8.63;;;4.20;;
5785;SDS011;2919;48.630;9.000;2023-02-22T16:04:06;7.23;;;2.70;;
5785;SDS011;2919;48.630;9.000;2023-02-22T16:06:39;8.13;;;4.20;;
5785;SDS011;2919;48.630;9.000;2023-02-22T16:09:21;20.10;;;4.80;;
5785;SDS011;2919;48.630;9.000;2023-02-22T16:14:47;11.83;;;6.00;;
5785;SDS011;2919;48.630;9.000;2023-02-22T16:19:49;24.90;;;7.63;;
5785;SDS011;2919;48.630;9.000;2023-02-22T16:22:23;14.13;;;6.00;;
5785;SDS011;2919;48.630;9.000;2023-02-22T16:24:52;11.43;;;5.30;;
5785;SDS011;2919;48.630;9.000;2023-02-22T16:27:20;14.53;;;5.17;;
5785;SDS011;2919;48.630;9.000;2023-02-22T16:30:00;12.20;;;3.97;;
5785;SDS011;2919;48.630;9.000;2023-02-22T16:32:48;8.50;;;3.70;;
5785;SDS011;2919;48.630;9.000;2023-02-22T16:35:14;5.60;;;3.20;;
5785;SDS011;2919;48.630;9.000;2023-02-22T16:37:46;7.77;;;4.17;;
5785;SDS011;2919;48.630;9.000;2023-02-22T16:40:19;14.80;;;4.77;;
5785;SDS011;2919;48.630;9.000;2023-02-22T16:42:46;7.00;;;3.80;;
5785;SDS011;2919;48.630;9.000;2023-02-22T16:45:15;7.63;;;3.77;;
5785;SDS011;2919;48.630;9.000;2023-02-22T16:47:44;12.67;;;4.80;;
5785;SDS011;2919;48.630;9.000;2023-02-22T16:50:11;7.83;;;3.53;;
5785;SDS011;2919;48.630;9.000;2023-02-22T16:52:37;6.93;;;3.60;;
5785;SDS011;2919;48.630;9.000;2023-02-22T16:55:05;9.10;;;4.37;;
5785;SDS011;2919;48.630;9.000;2023-02-22T16:57:35;9.23;;;4.33;;
5785;SDS011;2919;48.630;9.000;2023-02-22T17:00:03;6.70;;;3.60;;
5785;SDS011;2919;48.630;9.000;2023-02-22T17:02:36;9.70;;;3.90;;
5785;SDS011;2919;48.630;9.000;2023-02-22T17:05:03;9.53;;;4.13;;
5785;SDS011;2919;48.630;9.000;2023-02-22T17:07:29;12.40;;;4.67;;
5785;SDS011;2919;48.630;9.000;2023-02-22T17:09:55;12.03;;;3.97;;
5785;SDS011;2919;48.630;9.000;2023-02-22T17:12:24;8.40;;;3.63;;
5785;SDS011;2919;48.630;9.000;2023-02-22T17:14:52;8.63;;;4.50;;
5785;SDS011;2919;48.630;9.000;2023-02-22T17:17:18;11.50;;;5.80;;
5785;SDS011;2919;48.630;9.000;2023-02-22T17:19:44;9.40;;;5.50;;
5785;SDS011;2919;48.630;9.000;2023-02-22T17:22:16;16.73;;;6.60;;
5785;SDS011;2919;48.630;9.000;2023-02-22T17:24:44;13.30;;;6.87;;
5785;SDS011;2919;48.630;9.000;2023-02-22T17:27:10;15.53;;;8.10;;
5785;SDS011;2919;48.630;9.000;2023-02-22T17:29:35;23.07;;;8.63;;
5785;SDS011;2919;48.630;9.000;2023-02-22T17:32:01;14.73;;;5.90;;
5785;SDS011;2919;48.630;9.000;2023-02-22T17:34:27;17.63;;;7.87;;
5785;SDS011;2919;48.630;9.000;2023-02-22T17:36:52;23.70;;;7.70;;
5785;SDS011;2919;48.630;9.000;2023-02-22T17:39:18;26.20;;;9.57;;
5785;SDS011;2919;48.630;9.000;2023-02-22T17:41:43;15.97;;;8.10;;
5785;SDS011;2919;48.630;9.000;2023-02-22T17:44:09;19.57;;;8.67;;
5785;SDS011;2919;48.630;9.000;2023-02-22T17:46:35;15.50;;;7.00;;
5785;SDS011;2919;48.630;9.000;2023-02-22T17:49:03;15.30;;;7.43;;
5785;SDS011;2919;48.630;9.000;2023-02-22T17:51:29;17.13;;;8.00;;
5785;SDS011;2919;48.630;9.000;2023-02-22T17:53:55;21.27;;;9.17;;
5785;SDS011;2919;48.630;9.000;2023-02-22T17:56:20;13.97;;;6.20;;
5785;SDS011;2919;48.630;9.000;2023-02-22T17:58:47;15.20;;;6.47;;
5785;SDS011;2919;48.630;9.000;2023-02-22T18:01:18;15.67;;;7.13;;
5785;SDS011;2919;48.630;9.000;2023-02-22T18:03:48;11.93;;;6.03;;
5785;SDS011;2919;48.630;9.000;2023-02-22T18:06:15;15.53;;;6.17;;
5785;SDS011;2919;48.630;9.000;2023-02-22T18:08:44;15.00;;;6.33;;
5785;SDS011;2919;48.630;9.000;2023-02-22T18:11:11;11.20;;;5.27;;
5785;SDS011;2919;48.630;9.000;2023-02-22T18:13:38;10.33;;;4.90;;
5785;SDS011;2919;48.630;9.000;2023-02-22T18:16:03;7.43;;;4.30;;
5785;SDS011;2919;48.630;9.000;2023-02-22T18:18:29;9.27;;;5.13;;
5785;SDS011;2919;48.630;9.000;2023-02-22T18:20:56;14.13;;;5.90;;